Time;durP1;ratioP1;P1;durP2;ratioP2;P2;SDS_P1;SDS_P2;PMS_P1;PMS_P2;Temp;Humidity;BMP_temperature;BMP_pressure;BME280_temperature;BME280_humidity;BME280_pressure;Samples;Min_cycle;Max_cycle;Signal;HPM_P1;HPM_P2
2023/01/31 00:01:12;;;;;;;9.53;1.70;;;5.10;99.90;;;;;;6117467;23;20640;-71
2023/01/31 00:03:39;;;;;;;4.47;1.53;;;5.10;99.90;;;;;;6116271;23;21091;-71
2023/01/31 00:06:13;;;;;;;5.83;1.70;;;5.00;99.90;;;;;;6116214;23;20453;-71
2023/01/31 00:08:41;;;;;;;3.43;2.03;;;4.90;99.90;;;;;;6116848;23;20397;-71
2023/01/31 00:11:08;;;;;;;10.83;2.50;;;4.90;99.90;;;;;;6091486;23;20787;-71
2023/01/31 00:13:36;;;;;;;2.53;1.80;;;4.80;99.90;;;;;;6115664;23;20403;-71
2023/01/31 00:16:04;;;;;;;5.37;2.70;;;4.90;99.90;;;;;;6116043;23;20589;-71
2023/01/31 00:18:31;;;;;;;2.37;1.73;;;4.90;99.90;;;;;;6117531;23;20440;-70
2023/01/31 00:20:58;;;;;;;2.80;1.90;;;4.90;99.90;;;;;;6118729;23;20405;-71
2023/01/31 00:23:25;;;;;;;7.33;2.47;;;4.90;99.90;;;;;;6116581;23;20404;-70
2023/01/31 00:25:52;;;;;;;2.10;1.90;;;4.90;99.90;;;;;;6117819;23;20412;-70
2023/01/31 00:28:19;;;;;;;7.50;2.30;;;4.90;99.90;;;;;;6114488;23;20561;-70
2023/01/31 00:30:47;;;;;;;1.10;1.00;;;4.90;99.90;;;;;;6094789;23;20484;-71
2023/01/31 00:33:14;;;;;;;1.93;1.63;;;5.00;99.90;;;;;;6122223;23;20418;-71
2023/01/31 00:35:41;;;;;;;20.33;2.20;;;5.00;99.90;;;;;;6120262;23;20496;-71
2023/01/31 00:38:08;;;;;;;25.73;2.43;;;5.10;99.90;;;;;;6117307;23;20950;-71
2023/01/31 00:40:36;;;;;;;11.73;2.30;;;5.10;99.90;;;;;;6079945;23;20414;-70
2023/01/31 00:43:03;;;;;;;5.83;1.47;;;5.10;99.90;;;;;;6119591;23;20428;-71
2023/01/31 00:45:30;;;;;;;5.97;2.23;;;5.10;99.90;;;;;;6114692;23;20381;-71
2023/01/31 00:47:58;;;;;;;8.13;2.40;;;5.00;99.90;;;;;;6118671;23;20961;-71
2023/01/31 00:50:27;;;;;;;5.47;2.87;;;5.10;99.90;;;;;;6118114;23;20530;-70
2023/01/31 00:52:54;;;;;;;3.27;2.50;;;5.10;99.90;;;;;;6115836;23;20418;-70
2023/01/31 00:55:21;;;;;;;6.23;2.70;;;5.10;99.90;;;;;;6116177;23;20515;-70
2023/01/31 00:57:48;;;;;;;4.83;2.13;;;5.20;99.90;;;;;;6116858;23;20388;-70
2023/01/31 01:00:16;;;;;;;3.70;2.67;;;5.10;99.90;;;;;;6119414;23;20897;-71
2023/01/31 01:02:43;;;;;;;3.53;2.33;;;5.10;99.90;;;;;;6068343;23;20408;-70
2023/01/31 01:05:11;;;;;;;1.63;1.53;;;5.10;99.90;;;;;;6089430;23;20754;-70
2023/01/31 01:07:38;;;;;;;1.90;1.70;;;5.10;99.90;;;;;;6119029;23;20413;-71
2023/01/31 01:10:06;;;;;;;24.20;3.43;;;5.10;99.90;;;;;;6117785;23;20778;-70
2023/01/31 01:12:33;;;;;;;11.13;3.23;;;5.10;99.90;;;;;;6117027;23;20431;-71
2023/01/31 01:15:00;;;;;;;2.47;2.23;;;5.20;99.90;;;;;;6114419;23;20833;-71
2023/01/31 01:17:27;;;;;;;1.57;1.47;;;5.20;99.90;;;;;;6114632;23;21023;-70
2023/01/31 01:19:54;;;;;;;3.33;1.83;;;5.30;99.90;;;;;;6115155;23;20501;-70
2023/01/31 01:22:23;;;;;;;2.90;2.23;;;5.30;99.90;;;;;;6116206;23;20541;-70
2023/01/31 01:24:49;;;;;;;3.00;1.90;;;5.30;99.90;;;;;;6113795;23;20502;-70
2023/01/31 01:27:16;;;;;;;3.80;2.07;;;5.30;99.90;;;;;;6117973;23;20468;-70
2023/01/31 01:29:43;;;;;;;7.50;2.00;;;5.30;99.90;;;;;;6087728;23;20370;-71
2023/01/31 01:32:10;;;;;;;15.80;3.40;;;5.40;99.90;;;;;;6116755;23;20512;-70
2023/01/31 01:34:37;;;;;;;3.70;2.50;;;5.30;99.90;;;;;;6115341;23;20414;-70
2023/01/31 01:37:10;;;;;;;4.70;1.80;;;5.20;99.90;;;;;;6129829;23;20774;-70
2023/01/31 01:39:39;;;;;;;2.90;2.30;;;5.20;99.90;;;;;;6118198;23;20365;-71
2023/01/31 01:42:13;;;;;;;11.83;2.37;;;5.10;99.90;;;;;;6117797;23;20413;-71
2023/01/31 01:44:50;;;;;;;3.07;1.90;;;5.00;99.90;;;;;;6113295;23;20887;-71
2023/01/31 01:47:23;;;;;;;11.53;2.57;;;4.90;99.90;;;;;;6118047;23;20940;-70
2023/01/31 01:49:53;;;;;;;8.57;3.27;;;4.90;99.90;;;;;;6117267;23;20445;-71
2023/01/31 01:52:21;;;;;;;6.93;2.30;;;4.90;99.90;;;;;;6120111;23;20430;-70
2023/01/31 01:54:54;;;;;;;2.53;1.73;;;4.90;99.90;;;;;;6119678;23;20475;-71
2023/01/31 01:57:24;;;;;;;5.23;2.90;;;4.90;99.90;;;;;;6092250;23;20487;-70
2023/01/31 01:59:58;;;;;;;2.07;1.70;;;4.90;99.90;;;;;;6116020;23;20405;-71
2023/01/31 02:02:25;;;;;;;6.60;2.80;;;4.80;99.90;;;;;;6112782;23;20444;-71
2023/01/31 02:04:52;;;;;;;9.87;2.77;;;4.80;99.90;;;;;;6117209;23;20471;-70
2023/01/31 02:07:20;;;;;;;1.47;1.33;;;4.80;99.90;;;;;;6115675;23;20407;-71
2023/01/31 02:09:53;;;;;;;10.97;2.20;;;4.80;99.90;;;;;;6112839;23;20401;-71
2023/01/31 02:12:20;;;;;;;2.50;2.27;;;4.80;99.90;;;;;;6115876;23;20404;-71
2023/01/31 02:14:48;;;;;;;6.87;1.93;;;4.70;99.90;;;;;;6114429;23;20410;-71
2023/01/31 02:17:18;;;;;;;2.00;1.30;;;4.70;99.90;;;;;;6114405;23;20468;-70
2023/01/31 02:19:56;;;;;;;6.00;2.20;;;4.80;99.90;;;;;;6115205;23;20418;-70
2023/01/31 02:22:29;;;;;;;3.50;2.10;;;4.90;99.90;;;;;;6114769;23;20790;-70
2023/01/31 02:25:31;;;;;;;8.23;2.70;;;5.00;99.90;;;;;;6117014;23;20713;-71
2023/01/31 02:28:28;;;;;;;4.20;2.43;;;5.10;99.90;;;;;;6116022;23;20455;-71
2023/01/31 02:31:46;;;;;;;9.27;1.87;;;5.10;99.90;;;;;;6117323;23;20461;-71
2023/01/31 02:34:27;;;;;;;2.07;1.77;;;5.10;99.90;;;;;;6056094;23;20490;-74
2023/01/31 02:37:06;;;;;;;3.00;2.07;;;5.00;99.90;;;;;;6116553;23;20534;-71
2023/01/31 02:39:40;;;;;;;4.23;2.37;;;5.00;99.90;;;;;;6116833;23;20885;-71
2023/01/31 02:42:15;;;;;;;11.50;3.20;;;5.10;99.90;;;;;;6112854;23;21276;-71
2023/01/31 02:44:58;;;;;;;4.20;3.07;;;5.10;99.90;;;;;;6114661;23;20362;-71
2023/01/31 02:47:38;;;;;;;2.50;1.73;;;5.10;99.90;;;;;;6115598;23;20357;-71
2023/01/31 02:50:14;;;;;;;1.63;1.53;;;5.10;99.90;;;;;;6116605;23;20433;-70
2023/01/31 02:52:47;;;;;;;3.90;2.33;;;5.10;99.90;;;;;;6117717;23;20486;-71
2023/01/31 02:58:06;;;;;;;1.47;1.37;;;5.00;99.90;;;;;;6120265;23;20874;-71
2023/01/31 03:00:36;;;;;;;8.40;2.40;;;4.90;99.90;;;;;;6112374;23;20938;-71
2023/01/31 03:03:06;;;;;;;5.47;2.70;;;4.90;99.90;;;;;;6116835;23;20446;-71
2023/01/31 03:05:34;;;;;;;5.60;2.40;;;4.90;99.90;;;;;;6088741;23;20479;-71
2023/01/31 03:08:04;;;;;;;7.93;3.97;;;4.90;99.90;;;;;;6117968;23;20415;-71
2023/01/31 03:10:47;;;;;;;20.60;3.20;;;4.90;99.90;;;;;;6118357;23;20456;-71
2023/01/31 03:13:37;;;;;;;5.00;1.90;;;4.90;99.90;;;;;;6116932;23;20411;-71
2023/01/31 03:19:12;;;;;;;19.93;3.27;;;4.80;99.90;;;;;;6114376;23;20986;-71
2023/01/31 03:21:44;;;;;;;2.93;2.07;;;4.90;99.90;;;;;;6117171;23;20502;-71
2023/01/31 03:24:13;;;;;;;4.03;1.30;;;5.00;99.90;;;;;;6116540;23;20813;-70
2023/01/31 03:26:40;;;;;;;17.43;3.10;;;4.90;99.90;;;;;;6114948;23;20493;-71
2023/01/31 03:29:10;;;;;;;7.53;1.80;;;4.90;99.90;;;;;;6128813;23;20477;-71
2023/01/31 03:31:40;;;;;;;2.80;1.93;;;4.80;99.90;;;;;;6116094;23;20445;-70
2023/01/31 03:34:11;;;;;;;7.20;2.00;;;4.80;99.90;;;;;;6117564;23;20394;-70
2023/01/31 03:36:46;;;;;;;5.87;1.67;;;4.90;99.90;;;;;;6116781;23;20781;-72
2023/01/31 03:39:19;;;;;;;2.23;1.70;;;4.90;99.90;;;;;;6116934;23;20435;-71
2023/01/31 03:41:54;;;;;;;5.83;2.10;;;4.90;99.90;;;;;;6115202;23;20435;-71
2023/01/31 03:44:29;;;;;;;5.00;2.27;;;4.90;99.90;;;;;;6112813;23;20404;-70
2023/01/31 03:47:02;;;;;;;6.10;2.17;;;4.80;99.90;;;;;;6114697;23;20418;-71
2023/01/31 03:49:32;;;;;;;8.10;2.10;;;4.70;99.90;;;;;;6119851;23;20417;-71
2023/01/31 03:52:05;;;;;;;5.27;2.27;;;4.80;99.90;;;;;;6114443;23;20467;-71
2023/01/31 03:54:37;;;;;;;3.13;1.73;;;4.80;99.90;;;;;;6116453;23;20474;-71
2023/01/31 03:57:11;;;;;;;10.60;2.63;;;4.90;99.90;;;;;;6117367;23;20576;-71
2023/01/31 03:59:40;;;;;;;2.33;2.13;;;4.90;99.90;;;;;;6116681;23;20873;-71
2023/01/31 04:02:11;;;;;;;9.83;4.73;;;4.80;99.90;;;;;;6111915;23;20795;-71
2023/01/31 04:04:43;;;;;;;9.60;2.40;;;4.80;99.90;;;;;;6115749;23;20375;-74
2023/01/31 04:07:11;;;;;;;9.63;2.37;;;4.70;99.90;;;;;;6114678;23;20402;-71
2023/01/31 04:09:39;;;;;;;4.33;2.30;;;4.80;99.90;;;;;;6118785;23;20494;-72
2023/01/31 04:12:07;;;;;;;7.23;2.10;;;4.90;99.90;;;;;;6114454;23;20461;-71
2023/01/31 04:14:34;;;;;;;1.83;1.40;;;4.80;99.90;;;;;;6113486;23;20758;-71
2023/01/31 04:17:01;;;;;;;2.77;1.60;;;4.80;99.90;;;;;;6114483;23;20497;-71
2023/01/31 04:19:28;;;;;;;2.40;2.20;;;4.70;99.90;;;;;;6061816;23;20419;-71
2023/01/31 04:21:55;;;;;;;1.67;1.00;;;4.70;99.90;;;;;;6111623;23;20460;-72
2023/01/31 04:24:26;;;;;;;2.57;2.03;;;4.70;99.90;;;;;;6127830;23;20417;-69
2023/01/31 04:26:53;;;;;;;6.20;1.93;;;4.70;99.90;;;;;;6120661;23;20450;-72
2023/01/31 04:29:20;;;;;;;5.33;2.23;;;4.80;99.90;;;;;;6121345;23;20439;-71
2023/01/31 04:31:48;;;;;;;11.07;4.00;;;4.80;99.90;;;;;;6117359;23;20438;-70
2023/01/31 04:34:15;;;;;;;2.57;2.37;;;4.80;99.90;;;;;;6117954;23;20530;-70
2023/01/31 04:36:42;;;;;;;2.43;2.10;;;4.90;99.90;;;;;;6117721;23;20449;-71
2023/01/31 04:39:12;;;;;;;2.83;1.50;;;5.00;99.90;;;;;;6111469;23;21013;-70
2023/01/31 04:41:40;;;;;;;10.07;1.73;;;5.00;99.90;;;;;;6114441;23;20578;-69
2023/01/31 04:44:07;;;;;;;11.60;2.40;;;5.00;99.90;;;;;;6115792;23;20795;-70
2023/01/31 04:46:34;;;;;;;8.40;2.50;;;5.10;99.90;;;;;;6117409;23;20403;-70
2023/01/31 04:49:02;;;;;;;6.60;3.43;;;5.10;99.90;;;;;;6116270;23;20399;-70
2023/01/31 04:51:28;;;;;;;3.60;2.17;;;5.10;99.90;;;;;;6116536;23;20438;-71
2023/01/31 04:53:55;;;;;;;14.27;3.20;;;5.10;99.90;;;;;;6118351;23;20396;-70
2023/01/31 04:56:22;;;;;;;2.33;2.13;;;5.10;99.90;;;;;;6118101;23;20489;-71
2023/01/31 04:58:51;;;;;;;2.10;1.87;;;5.10;99.90;;;;;;6115658;23;20441;-69
2023/01/31 05:01:18;;;;;;;7.10;2.60;;;5.10;99.90;;;;;;6115511;23;20524;-70
2023/01/31 05:03:45;;;;;;;5.50;3.60;;;5.00;99.90;;;;;;6120667;23;20419;-70
2023/01/31 05:06:12;;;;;;;1.63;1.53;;;5.00;99.90;;;;;;6118595;23;20438;-71
2023/01/31 05:08:39;;;;;;;5.07;2.33;;;5.00;99.90;;;;;;6113174;23;20429;-71
2023/01/31 05:11:06;;;;;;;6.70;3.10;;;5.00;99.90;;;;;;6111538;23;20570;-71
2023/01/31 05:13:36;;;;;;;6.20;2.10;;;5.10;99.90;;;;;;6112607;23;20415;-71
2023/01/31 05:16:07;;;;;;;9.30;4.00;;;5.10;99.90;;;;;;6114117;23;20458;-71
2023/01/31 05:18:35;;;;;;;6.00;2.10;;;5.10;99.90;;;;;;6086865;23;20384;-71
2023/01/31 05:21:03;;;;;;;4.57;4.17;;;5.20;99.90;;;;;;6123679;23;20458;-70
2023/01/31 05:23:31;;;;;;;2.03;1.63;;;5.20;99.90;;;;;;6119084;23;20421;-70
2023/01/31 05:25:58;;;;;;;2.00;1.80;;;5.20;99.90;;;;;;6112555;23;20416;-71
2023/01/31 05:28:26;;;;;;;4.67;2.83;;;5.20;99.90;;;;;;6111037;23;20419;-70
2023/01/31 05:31:02;;;;;;;7.03;3.13;;;5.20;99.90;;;;;;6110388;23;20782;-71
2023/01/31 05:33:33;;;;;;;8.47;3.70;;;5.20;99.90;;;;;;6109586;23;20376;-70
2023/01/31 05:36:01;;;;;;;8.33;2.30;;;5.20;99.90;;;;;;6111094;23;20427;-71
2023/01/31 05:38:28;;;;;;;3.87;3.57;;;5.30;99.90;;;;;;6113118;23;20444;-71
2023/01/31 05:40:55;;;;;;;2.97;2.77;;;5.20;99.90;;;;;;6111327;23;20410;-71
2023/01/31 05:43:22;;;;;;;12.87;3.97;;;5.20;99.90;;;;;;6113314;23;20392;-71
2023/01/31 05:45:49;;;;;;;6.77;2.90;;;5.20;99.90;;;;;;6113106;23;20651;-70
2023/01/31 05:48:17;;;;;;;3.27;1.80;;;5.20;99.90;;;;;;6117982;23;20536;-71
2023/01/31 05:50:45;;;;;;;3.60;2.30;;;5.20;99.90;;;;;;6120986;23;20480;-71
2023/01/31 05:53:12;;;;;;;10.77;2.73;;;5.20;99.90;;;;;;6121444;23;20442;-71
2023/01/31 05:55:39;;;;;;;9.47;4.30;;;5.20;99.90;;;;;;6070721;23;20906;-70
2023/01/31 05:58:06;;;;;;;5.93;3.97;;;5.10;99.90;;;;;;6118161;23;20505;-70
2023/01/31 06:00:33;;;;;;;5.83;4.50;;;5.10;99.90;;;;;;6119091;23;20438;-71
2023/01/31 06:03:03;;;;;;;2.73;2.43;;;5.10;99.90;;;;;;6120231;23;20432;-71
2023/01/31 06:05:29;;;;;;;3.20;1.87;;;5.10;99.90;;;;;;6120012;23;20389;-70
2023/01/31 06:08:00;;;;;;;9.83;2.83;;;5.10;99.90;;;;;;6118599;23;20517;-70
2023/01/31 06:10:27;;;;;;;6.07;3.60;;;5.10;99.90;;;;;;6118990;23;20369;-70
2023/01/31 06:12:54;;;;;;;6.93;3.33;;;5.10;99.90;;;;;;6118136;23;20406;-70
2023/01/31 06:15:21;;;;;;;13.03;3.57;;;5.10;99.90;;;;;;6069868;23;20410;-70
2023/01/31 06:17:48;;;;;;;15.57;5.20;;;5.10;99.90;;;;;;6128381;23;20810;-69
2023/01/31 06:20:15;;;;;;;2.53;2.33;;;5.10;99.90;;;;;;6120082;23;20488;-71
2023/01/31 06:22:42;;;;;;;6.73;3.30;;;5.10;99.90;;;;;;6119985;23;20417;-71
2023/01/31 06:25:11;;;;;;;13.40;4.07;;;5.20;99.90;;;;;;6068411;23;20852;-71
2023/01/31 06:27:38;;;;;;;4.03;2.47;;;5.20;99.90;;;;;;6118925;23;20516;-70
2023/01/31 06:30:09;;;;;;;7.63;3.60;;;5.20;99.90;;;;;;6118821;23;20439;-71
2023/01/31 06:32:36;;;;;;;4.70;3.30;;;5.20;99.90;;;;;;6119627;23;20518;-71
2023/01/31 06:35:03;;;;;;;8.43;4.27;;;5.20;99.90;;;;;;6120398;23;20464;-70
2023/01/31 06:37:31;;;;;;;3.43;2.70;;;5.20;99.90;;;;;;6117887;23;20448;-70
2023/01/31 06:40:03;;;;;;;21.57;3.03;;;5.20;99.90;;;;;;6119440;23;20390;-71
2023/01/31 06:42:32;;;;;;;8.43;3.83;;;5.20;99.90;;;;;;6119280;23;20514;-71
2023/01/31 06:44:59;;;;;;;10.80;3.27;;;5.20;99.90;;;;;;6120958;23;20395;-71
2023/01/31 06:47:26;;;;;;;6.00;3.43;;;5.20;99.90;;;;;;6122721;23;20414;-72
2023/01/31 06:49:53;;;;;;;16.73;2.90;;;5.20;99.90;;;;;;6120483;23;20728;-70
2023/01/31 06:52:19;;;;;;;9.73;2.80;;;5.30;99.90;;;;;;6121155;23;20440;-71
2023/01/31 06:54:46;;;;;;;8.93;3.23;;;5.30;99.90;;;;;;6122516;23;20465;-72
2023/01/31 06:57:13;;;;;;;7.87;4.33;;;5.30;99.90;;;;;;6123560;23;20439;-71
2023/01/31 06:59:41;;;;;;;7.53;6.80;;;5.30;99.90;;;;;;6120291;23;20920;-70
2023/01/31 07:02:10;;;;;;;6.90;4.07;;;5.30;99.90;;;;;;6123269;23;20458;-71
2023/01/31 07:04:37;;;;;;;17.73;3.87;;;5.20;99.90;;;;;;6120561;23;20440;-71
2023/01/31 07:07:04;;;;;;;5.73;2.80;;;5.30;99.90;;;;;;6120605;23;20409;-72
2023/01/31 07:09:31;;;;;;;5.70;2.53;;;5.20;99.90;;;;;;6122875;23;20452;-70
2023/01/31 07:11:58;;;;;;;18.37;3.73;;;5.20;99.90;;;;;;6123812;23;20419;-69
2023/01/31 07:14:25;;;;;;;8.87;2.80;;;5.20;99.90;;;;;;6125935;23;20385;-70
2023/01/31 07:16:53;;;;;;;7.53;4.67;;;5.20;99.90;;;;;;6125242;23;20481;-71
2023/01/31 07:19:20;;;;;;;6.77;3.93;;;5.20;99.90;;;;;;6123237;23;20403;-70
2023/01/31 07:21:48;;;;;;;11.47;3.87;;;5.20;99.90;;;;;;6118421;23;20438;-69
2023/01/31 07:24:15;;;;;;;5.57;3.40;;;5.30;99.90;;;;;;6120384;23;20485;-69
2023/01/31 07:26:42;;;;;;;7.30;2.50;;;5.40;99.90;;;;;;6122280;23;20903;-70
2023/01/31 07:29:10;;;;;;;4.33;2.90;;;5.30;99.90;;;;;;6121276;23;20385;-70
2023/01/31 07:31:37;;;;;;;8.80;3.33;;;5.30;99.90;;;;;;6124704;23;20405;-71
2023/01/31 07:34:06;;;;;;;5.33;2.40;;;5.40;99.90;;;;;;6125499;23;20698;-71
2023/01/31 07:36:33;;;;;;;5.27;2.70;;;5.30;99.90;;;;;;6121967;23;20405;-73
2023/01/31 07:39:00;;;;;;;5.30;4.10;;;5.30;99.90;;;;;;6122072;23;20779;-70
2023/01/31 07:41:28;;;;;;;24.13;3.40;;;5.30;99.90;;;;;;6121999;23;20443;-70
2023/01/31 07:43:56;;;;;;;7.93;3.43;;;5.30;99.90;;;;;;6121911;23;20935;-71
2023/01/31 07:46:23;;;;;;;3.43;2.50;;;5.30;99.90;;;;;;6125701;23;20443;-71
2023/01/31 07:48:50;;;;;;;6.00;3.37;;;5.40;99.90;;;;;;6117403;23;21093;-71
2023/01/31 07:51:18;;;;;;;5.33;3.27;;;5.40;99.90;;;;;;6121340;23;20444;-71
2023/01/31 07:53:45;;;;;;;8.63;3.27;;;5.40;99.90;;;;;;6120634;23;20494;-71
2023/01/31 07:56:14;;;;;;;7.83;3.60;;;5.40;99.90;;;;;;6120562;23;20434;-71
2023/01/31 07:58:42;;;;;;;7.00;2.33;;;5.40;99.90;;;;;;6119134;23;20457;-71
2023/01/31 08:03:59;;;;;;;11.63;1.70;;;5.50;99.90;;;;;;6120825;23;20756;-71
2023/01/31 08:06:31;;;;;;;8.27;2.70;;;5.60;99.90;;;;;;6122390;23;20508;-71
2023/01/31 08:09:00;;;;;;;4.27;3.00;;;5.60;99.90;;;;;;6118809;23;20441;-72
2023/01/31 08:11:27;;;;;;;11.10;2.70;;;5.60;99.90;;;;;;6135328;23;20453;-71
2023/01/31 08:13:54;;;;;;;4.33;1.87;;;5.70;99.90;;;;;;6120990;23;20775;-71
2023/01/31 08:16:22;;;;;;;10.40;2.67;;;5.70;99.90;;;;;;6120841;23;20421;-72
2023/01/31 08:18:49;;;;;;;11.07;4.43;;;5.80;99.90;;;;;;6120450;23;20706;-71
2023/01/31 08:21:17;;;;;;;5.50;2.77;;;5.80;99.90;;;;;;6119710;23;20527;-71
2023/01/31 08:23:45;;;;;;;7.53;4.60;;;5.90;99.90;;;;;;6119873;23;20395;-70
2023/01/31 08:26:15;;;;;;;9.23;3.63;;;5.90;99.90;;;;;;6118848;23;20506;-69
2023/01/31 08:28:42;;;;;;;13.17;5.40;;;5.90;99.90;;;;;;6118400;23;20387;-71
2023/01/31 08:31:16;;;;;;;3.00;2.70;;;5.90;99.90;;;;;;6119595;23;20413;-71
2023/01/31 08:33:43;;;;;;;8.83;3.37;;;5.90;99.90;;;;;;6120929;23;20457;-71
2023/01/31 08:36:12;;;;;;;13.40;3.60;;;5.90;99.90;;;;;;6119822;23;20508;-72
2023/01/31 08:38:39;;;;;;;4.97;2.10;;;5.80;99.90;;;;;;6118446;23;20850;-70
2023/01/31 08:41:07;;;;;;;5.00;3.00;;;5.80;99.90;;;;;;6120613;23;20409;-70
2023/01/31 08:43:36;;;;;;;3.20;2.40;;;5.70;99.90;;;;;;6121342;23;20448;-70
2023/01/31 08:46:03;;;;;;;6.00;1.93;;;5.80;99.90;;;;;;6121026;23;20448;-71
2023/01/31 08:48:32;;;;;;;2.57;2.37;;;5.70;99.90;;;;;;6122232;23;20471;-72
2023/01/31 08:51:01;;;;;;;8.33;2.67;;;5.70;99.90;;;;;;6120083;23;20440;-70
2023/01/31 08:53:28;;;;;;;9.53;3.63;;;5.60;99.90;;;;;;6119571;23;20902;-71
2023/01/31 08:55:59;;;;;;;3.97;2.70;;;5.50;99.90;;;;;;6120845;23;20619;-71
2023/01/31 08:58:27;;;;;;;5.13;2.63;;;5.60;99.90;;;;;;6119717;23;20776;-71
2023/01/31 09:00:57;;;;;;;22.57;3.27;;;5.60;99.90;;;;;;6125288;23;20401;-71
2023/01/31 09:03:24;;;;;;;4.00;3.03;;;5.50;99.90;;;;;;6122271;23;20878;-71
2023/01/31 09:05:51;;;;;;;5.73;2.70;;;5.50;99.90;;;;;;6124166;23;20491;-71
2023/01/31 09:08:17;;;;;;;3.57;2.57;;;5.50;99.90;;;;;;6127437;23;20579;-70
2023/01/31 09:10:51;;;;;;;3.63;2.90;;;5.50;99.90;;;;;;6120086;23;20414;-69
2023/01/31 09:13:18;;;;;;;9.43;2.80;;;5.60;99.90;;;;;;6128430;23;20478;-71
2023/01/31 09:15:47;;;;;;;5.13;2.70;;;5.60;99.90;;;;;;6120439;23;20417;-71
2023/01/31 09:18:14;;;;;;;8.17;2.30;;;5.60;99.90;;;;;;6121876;23;20410;-71
2023/01/31 09:20:41;;;;;;;6.27;2.13;;;5.60;99.90;;;;;;6120836;23;20457;-71
2023/01/31 09:23:08;;;;;;;3.77;1.50;;;5.60;99.90;;;;;;6119202;23;20397;-71
2023/01/31 09:25:35;;;;;;;1.87;1.67;;;5.60;99.90;;;;;;6118224;23;20493;-71
2023/01/31 09:28:01;;;;;;;4.50;2.00;;;5.60;99.90;;;;;;6118153;23;20398;-70
2023/01/31 09:30:28;;;;;;;3.53;2.40;;;5.60;99.90;;;;;;6118634;23;20490;-70
2023/01/31 09:33:00;;;;;;;4.10;1.73;;;5.60;99.90;;;;;;6119752;23;20387;-71
2023/01/31 09:35:27;;;;;;;11.00;4.20;;;5.60;99.90;;;;;;6122982;23;20498;-71
2023/01/31 09:37:54;;;;;;;5.67;4.33;;;5.70;99.90;;;;;;6119443;23;20456;-71
2023/01/31 09:40:23;;;;;;;1.67;1.43;;;5.70;99.90;;;;;;6119830;23;21030;-71
2023/01/31 09:42:51;;;;;;;4.33;2.47;;;5.60;99.90;;;;;;6119375;23;20413;-71
2023/01/31 09:45:28;;;;;;;1.83;1.60;;;5.60;99.90;;;;;;6119739;23;20984;-71
2023/01/31 09:47:59;;;;;;;2.83;2.00;;;5.70;99.90;;;;;;6118593;23;20369;-71
2023/01/31 09:50:33;;;;;;;4.23;2.73;;;5.70;99.90;;;;;;6117153;23;20440;-72
2023/01/31 09:53:02;;;;;;;21.77;3.50;;;5.80;99.90;;;;;;6118365;23;20378;-70
2023/01/31 09:55:36;;;;;;;2.93;1.93;;;5.80;99.90;;;;;;6119807;23;20452;-70
2023/01/31 09:58:12;;;;;;;2.73;1.80;;;5.80;99.90;;;;;;6118665;23;20552;-69
2023/01/31 10:00:49;;;;;;;4.10;1.97;;;5.90;99.90;;;;;;6118728;23;20474;-70
2023/01/31 10:03:38;;;;;;;3.23;1.90;;;6.00;99.90;;;;;;6125856;23;20414;-70
2023/01/31 10:06:15;;;;;;;1.50;1.30;;;5.80;99.90;;;;;;6122136;23;20394;-70
2023/01/31 10:08:51;;;;;;;2.50;1.50;;;5.80;99.90;;;;;;6119461;23;20415;-71
2023/01/31 10:11:33;;;;;;;1.23;1.13;;;5.80;99.90;;;;;;6119575;23;20764;-71
2023/01/31 10:14:08;;;;;;;12.90;2.73;;;5.80;99.90;;;;;;6123044;23;20469;-70
2023/01/31 10:16:39;;;;;;;5.63;2.40;;;5.70;99.90;;;;;;6119848;23;20741;-71
2023/01/31 10:19:12;;;;;;;4.03;2.13;;;5.70;99.90;;;;;;6119938;23;20460;-71
2023/01/31 10:21:42;;;;;;;2.10;1.90;;;5.70;99.90;;;;;;6120007;23;20408;-71
2023/01/31 10:24:14;;;;;;;2.97;1.83;;;5.70;99.90;;;;;;6118373;23;20428;-72
2023/01/31 10:26:45;;;;;;;6.13;2.80;;;5.80;99.90;;;;;;6119061;23;20388;-71
2023/01/31 10:29:17;;;;;;;3.93;3.40;;;5.70;99.90;;;;;;6118396;23;20374;-71
2023/01/31 10:31:50;;;;;;;5.13;2.57;;;5.70;99.90;;;;;;6119704;23;20439;-71
2023/01/31 10:34:24;;;;;;;3.33;2.60;;;5.70;99.90;;;;;;6119013;23;20399;-71
2023/01/31 10:36:56;;;;;;;3.53;2.53;;;5.90;99.90;;;;;;6119468;23;21054;-71
2023/01/31 10:39:28;;;;;;;5.37;2.93;;;6.00;99.90;;;;;;6116820;23;20459;-71
2023/01/31 10:42:12;;;;;;;8.43;4.10;;;6.00;99.90;;;;;;6117621;23;20469;-71
2023/01/31 10:44:47;;;;;;;3.10;1.17;;;6.10;99.90;;;;;;6117505;23;20373;-70
2023/01/31 10:47:16;;;;;;;4.93;2.90;;;5.90;99.90;;;;;;6118416;23;20398;-71
2023/01/31 10:49:46;;;;;;;3.40;2.87;;;5.90;99.90;;;;;;6120307;23;20417;-72
2023/01/31 10:52:29;;;;;;;3.20;1.63;;;6.00;99.90;;;;;;6118471;23;20479;-70
2023/01/31 10:55:11;;;;;;;3.53;2.83;;;6.10;99.90;;;;;;6123977;23;20539;-71
2023/01/31 10:57:40;;;;;;;5.35;2.05;;;6.00;99.90;;;;;;6121798;23;20484;-71
2023/01/31 11:00:13;;;;;;;2.50;1.63;;;5.90;99.90;;;;;;6139160;23;20431;-71
2023/01/31 11:02:40;;;;;;;7.47;3.33;;;5.90;99.90;;;;;;6121925;23;20946;-70
2023/01/31 11:05:18;;;;;;;4.27;2.40;;;5.90;99.90;;;;;;6120764;23;20441;-72
2023/01/31 11:07:46;;;;;;;8.30;1.83;;;6.00;99.90;;;;;;6121265;23;20365;-70
2023/01/31 11:10:25;;;;;;;11.60;2.70;;;6.00;99.90;;;;;;6120580;23;20820;-70
2023/01/31 11:12:54;;;;;;;2.37;2.17;;;6.10;99.90;;;;;;6118319;23;20456;-72
2023/01/31 11:15:25;;;;;;;8.53;1.90;;;6.20;99.90;;;;;;6119816;23;20440;-71
2023/01/31 11:17:52;;;;;;;15.83;3.20;;;6.10;99.90;;;;;;6119612;23;20517;-75
2023/01/31 11:20:25;;;;;;;3.67;2.10;;;6.10;99.90;;;;;;6117455;23;20452;-69
2023/01/31 11:22:53;;;;;;;3.73;2.87;;;6.20;99.90;;;;;;6117551;23;20478;-71
2023/01/31 11:25:23;;;;;;;5.57;2.10;;;6.20;99.90;;;;;;6119547;23;20453;-71
2023/01/31 11:27:53;;;;;;;4.60;1.87;;;6.30;99.90;;;;;;6119764;23;20436;-71
2023/01/31 11:30:25;;;;;;;3.07;2.70;;;6.30;99.90;;;;;;6117801;23;20429;-71
2023/01/31 11:32:52;;;;;;;10.70;3.27;;;6.30;99.90;;;;;;6119591;23;20405;-72
2023/01/31 11:35:27;;;;;;;2.90;2.30;;;6.40;99.90;;;;;;6121845;23;20424;-70
2023/01/31 11:37:57;;;;;;;2.77;1.80;;;6.40;99.90;;;;;;6112787;23;20882;-72
2023/01/31 11:40:30;;;;;;;6.50;5.10;;;6.50;99.90;;;;;;6120964;23;20401;-71
2023/01/31 11:42:59;;;;;;;4.30;3.77;;;6.50;99.90;;;;;;6122147;23;20374;-71
2023/01/31 11:45:30;;;;;;;4.73;2.67;;;6.50;99.90;;;;;;6118682;23;20388;-72
2023/01/31 11:47:59;;;;;;;4.97;3.30;;;6.60;99.90;;;;;;6121168;23;20457;-71
2023/01/31 11:50:36;;;;;;;5.07;3.10;;;6.50;99.90;;;;;;6122625;23;20483;-72
2023/01/31 11:53:13;;;;;;;7.67;3.30;;;6.60;99.90;;;;;;6123223;23;20394;-71
2023/01/31 11:55:42;;;;;;;5.97;3.53;;;6.60;99.90;;;;;;6128312;23;20441;-73
2023/01/31 11:58:20;;;;;;;17.70;5.27;;;6.60;99.90;;;;;;6124996;23;20476;-69
2023/01/31 12:00:54;;;;;;;3.80;3.20;;;6.70;99.90;;;;;;6121002;23;20413;-71
2023/01/31 12:03:22;;;;;;;7.30;3.80;;;6.70;99.90;;;;;;6121239;23;20489;-71
2023/01/31 12:06:00;;;;;;;8.30;3.37;;;6.70;99.90;;;;;;6120920;23;20382;-72
2023/01/31 12:08:29;;;;;;;5.30;3.50;;;6.80;99.90;;;;;;6118680;23;20409;-70
2023/01/31 12:10:57;;;;;;;3.10;2.63;;;6.90;99.90;;;;;;6120959;23;20438;-71
2023/01/31 12:13:24;;;;;;;9.07;3.57;;;6.80;99.90;;;;;;6123385;23;20507;-71
2023/01/31 12:15:55;;;;;;;11.80;3.93;;;6.80;99.90;;;;;;6124628;23;20577;-70
2023/01/31 12:18:41;;;;;;;3.60;2.43;;;6.70;99.90;;;;;;6120351;23;20402;-71
2023/01/31 12:21:14;;;;;;;11.97;7.77;;;6.80;99.90;;;;;;6121153;23;20506;-69
2023/01/31 12:23:50;;;;;;;4.77;3.97;;;6.80;99.90;;;;;;6117656;23;20444;-72
2023/01/31 12:26:25;;;;;;;6.03;5.30;;;6.80;99.90;;;;;;6121190;23;20366;-71
2023/01/31 12:29:09;;;;;;;16.73;8.00;;;6.80;99.90;;;;;;6120808;23;20534;-71
2023/01/31 12:31:54;;;;;;;7.33;4.53;;;6.80;99.90;;;;;;6117732;23;20430;-70
2023/01/31 12:34:38;;;;;;;4.70;4.30;;;6.90;99.90;;;;;;6122601;23;20419;-71
2023/01/31 12:37:24;;;;;;;12.90;5.50;;;6.80;99.90;;;;;;6118754;23;20410;-69
2023/01/31 12:40:07;;;;;;;10.73;5.80;;;6.80;99.90;;;;;;6119572;23;20416;-71
2023/01/31 12:42:55;;;;;;;8.77;3.93;;;6.80;99.90;;;;;;6121427;23;20465;-72
2023/01/31 12:45:50;;;;;;;5.20;4.50;;;6.90;99.90;;;;;;6121873;23;20417;-70
2023/01/31 12:48:49;;;;;;;8.50;4.50;;;6.90;99.90;;;;;;6120009;23;20398;-74
2023/01/31 12:51:29;;;;;;;9.13;5.67;;;6.90;99.90;;;;;;6124195;23;20414;-70
2023/01/31 12:54:10;;;;;;;14.03;7.00;;;7.00;99.90;;;;;;6128710;23;20418;-71
2023/01/31 12:56:56;;;;;;;10.80;7.33;;;7.00;99.90;;;;;;6124802;23;20362;-71
2023/01/31 12:59:39;;;;;;;14.23;5.07;;;7.00;99.90;;;;;;6118889;23;20551;-71
2023/01/31 13:02:21;;;;;;;8.23;6.23;;;7.00;99.90;;;;;;6122280;23;20431;-71
2023/01/31 13:04:52;;;;;;;10.40;6.87;;;7.00;99.90;;;;;;6120952;23;20418;-70
2023/01/31 13:07:25;;;;;;;7.23;3.77;;;7.10;99.90;;;;;;6121993;23;20884;-70
2023/01/31 13:09:56;;;;;;;4.57;3.53;;;7.10;99.90;;;;;;6122017;23;20395;-70
2023/01/31 13:12:28;;;;;;;11.93;6.07;;;7.10;99.90;;;;;;6119369;23;20420;-70
2023/01/31 13:15:04;;;;;;;5.30;4.40;;;7.10;99.90;;;;;;6120732;23;20391;-71
2023/01/31 13:17:33;;;;;;;4.40;4.00;;;7.10;99.90;;;;;;6118340;23;20399;-70
2023/01/31 13:20:05;;;;;;;24.40;7.33;;;7.10;99.90;;;;;;6120828;23;20429;-71
2023/01/31 13:22:39;;;;;;;13.00;5.67;;;7.10;99.90;;;;;;6120902;23;20488;-69